Time;durP1;ratioP1;P1;durP2;ratioP2;P2;SDS_P1;SDS_P2;PMS_P1;PMS_P2;Temp;Humidity;BMP_temperature;BMP_pressure;BME280_temperature;BME280_humidity;BME280_pressure;Samples;Min_cycle;Max_cycle;Signal;HPM_P1;HPM_P2
2022/10/08 00:00:03;;;;;;;0.38;0.38;;;;;;;;;;5095854;28;20103;-74
2022/10/08 00:02:37;;;;;;;0.20;0.20;;;;;;;;;;5095531;28;20032;-73
2022/10/08 00:05:02;;;;;;;0.77;0.77;;;;;;;;;;5094597;28;20028;-76
2022/10/08 00:07:28;;;;;;;0.20;0.20;;;;;;;;;;5094620;28;20035;-75
2022/10/08 00:09:53;;;;;;;2.35;2.25;;;;;;;;;;5094385;28;20109;-74
2022/10/08 00:12:19;;;;;;;0.98;0.65;;;;;;;;;;5095657;28;20031;-75
2022/10/08 00:14:45;;;;;;;0.30;0.30;;;;;;;;;;5095651;28;20028;-76
2022/10/08 00:17:11;;;;;;;0.20;0.20;;;;;;;;;;5093600;28;20121;-76
2022/10/08 00:19:36;;;;;;;1.02;1.02;;;;;;;;;;5094342;28;20554;-75
2022/10/08 00:22:02;;;;;;;0.20;0.20;;;;;;;;;;5094108;28;20036;-76
2022/10/08 00:24:27;;;;;;;0.98;0.98;;;;;;;;;;5077309;28;20036;-76
2022/10/08 00:26:53;;;;;;;0.85;0.85;;;;;;;;;;5095267;28;20036;-75
2022/10/08 00:29:19;;;;;;;0.95;0.95;;;;;;;;;;5094933;28;20032;-76
2022/10/08 00:31:46;;;;;;;0.28;0.28;;;;;;;;;;5094983;28;20028;-74
2022/10/08 00:34:22;;;;;;;0.20;0.20;;;;;;;;;;5094101;28;20024;-76
2022/10/08 00:36:51;;;;;;;1.20;1.13;;;;;;;;;;5095154;28;20452;-75
2022/10/08 00:39:17;;;;;;;;;;;;;;;;;;5095458;28;20114;-77
2022/10/08 00:41:43;;;;;;;1.27;1.27;;;;;;;;;;5094894;28;19937;-76
2022/10/08 00:44:28;;;;;;;0.82;0.82;;;;;;;;;;5094800;28;20024;-75
2022/10/08 00:46:53;;;;;;;0.13;0.13;;;;;;;;;;5094970;28;20070;-76
2022/10/08 00:49:21;;;;;;;0.50;0.50;;;;;;;;;;5093706;28;20483;-76
2022/10/08 00:51:49;;;;;;;0.20;0.20;;;;;;;;;;5093714;28;20107;-77
2022/10/08 00:54:15;;;;;;;0.20;0.20;;;;;;;;;;5094716;28;20028;-76
2022/10/08 00:56:41;;;;;;;0.20;0.20;;;;;;;;;;5093548;28;20028;-76
2022/10/08 00:59:08;;;;;;;0.47;0.47;;;;;;;;;;5092292;28;20030;-76
2022/10/08 01:01:33;;;;;;;0.10;0.10;;;;;;;;;;5080943;28;20472;-75
2022/10/08 01:04:01;;;;;;;0.20;0.20;;;;;;;;;;5094404;28;20031;-76
2022/10/08 01:06:28;;;;;;;0.15;0.15;;;;;;;;;;5094518;28;20375;-76
2022/10/08 01:09:00;;;;;;;0.20;0.20;;;;;;;;;;5093122;28;20395;-76
2022/10/08 01:11:47;;;;;;;0.17;0.17;;;;;;;;;;5094301;28;20028;-76
2022/10/08 01:14:12;;;;;;;2.05;1.95;;;;;;;;;;5094477;28;20463;-76
2022/10/08 01:16:50;;;;;;;0.25;0.25;;;;;;;;;;5094148;28;20056;-76
2022/10/08 01:19:18;;;;;;;0.77;0.77;;;;;;;;;;5094340;28;20387;-77
2022/10/08 01:21:57;;;;;;;0.20;0.20;;;;;;;;;;5093051;28;20107;-76
2022/10/08 01:24:22;;;;;;;0.20;0.20;;;;;;;;;;5076222;28;20036;-76
2022/10/08 01:26:53;;;;;;;0.40;0.40;;;;;;;;;;5094344;28;20024;-78
2022/10/08 01:29:34;;;;;;;0.20;0.20;;;;;;;;;;5094539;28;20052;-76
2022/10/08 01:32:02;;;;;;;0.20;0.20;;;;;;;;;;5093990;28;20031;-75
2022/10/08 01:34:35;;;;;;;0.93;0.63;;;;;;;;;;5094172;28;20081;-76
2022/10/08 01:37:01;;;;;;;0.15;0.15;;;;;;;;;;5094104;28;20043;-75
2022/10/08 01:39:29;;;;;;;0.30;0.30;;;;;;;;;;5093165;28;20069;-77
2022/10/08 01:41:57;;;;;;;0.20;0.20;;;;;;;;;;5093728;28;20475;-75
2022/10/08 01:44:45;;;;;;;0.20;0.20;;;;;;;;;;5093779;28;20027;-76
2022/10/08 01:47:12;;;;;;;0.85;0.85;;;;;;;;;;5093991;28;20539;-75
2022/10/08 01:49:56;;;;;;;0.30;0.30;;;;;;;;;;5093666;28;20028;-77
2022/10/08 01:52:24;;;;;;;0.20;0.20;;;;;;;;;;5093681;28;20024;-76
2022/10/08 01:54:51;;;;;;;0.13;0.13;;;;;;;;;;5092278;28;20032;-77
2022/10/08 01:57:17;;;;;;;13.73;12.55;;;;;;;;;;5093532;28;20031;-77
2022/10/08 01:59:48;;;;;;;0.10;0.10;;;;;;;;;;5080155;28;20036;-75
2022/10/08 02:02:21;;;;;;;0.43;0.43;;;;;;;;;;5073767;28;20020;-76
2022/10/08 02:04:48;;;;;;;0.10;0.10;;;;;;;;;;5073762;28;20024;-77
2022/10/08 02:07:15;;;;;;;0.20;0.20;;;;;;;;;;5073208;28;20028;-76
2022/10/08 02:09:42;;;;;;;0.20;0.20;;;;;;;;;;5065866;28;20025;-77
2022/10/08 02:12:08;;;;;;;2.00;0.95;;;;;;;;;;5052853;28;20029;-76
2022/10/08 02:14:35;;;;;;;0.40;0.40;;;;;;;;;;5052504;28;20029;-78
2022/10/08 02:17:08;;;;;;;4.90;3.50;;;;;;;;;;5051536;28;20049;-76
2022/10/08 02:19:35;;;;;;;0.10;0.10;;;;;;;;;;5052043;28;20464;-76
2022/10/08 02:22:02;;;;;;;0.82;0.82;;;;;;;;;;5053131;28;20061;-76
2022/10/08 02:24:35;;;;;;;0.10;0.10;;;;;;;;;;5051761;28;20487;-77
2022/10/08 02:27:03;;;;;;;0.30;0.30;;;;;;;;;;5053286;28;20025;-76
2022/10/08 02:29:43;;;;;;;0.40;0.40;;;;;;;;;;5053168;28;20036;-76
2022/10/08 02:32:29;;;;;;;2.05;1.95;;;;;;;;;;5053361;28;20033;-75
2022/10/08 02:34:56;;;;;;;0.20;0.20;;;;;;;;;;5052620;28;20477;-75
2022/10/08 02:37:30;;;;;;;0.20;0.20;;;;;;;;;;5052628;28;20029;-76
2022/10/08 02:39:59;;;;;;;0.20;0.20;;;;;;;;;;5052383;28;20115;-77
2022/10/08 02:42:26;;;;;;;0.37;0.37;;;;;;;;;;5053059;28;20029;-77
2022/10/08 02:44:54;;;;;;;1.00;0.95;;;;;;;;;;5052944;28;20071;-75
2022/10/08 02:47:22;;;;;;;0.20;0.20;;;;;;;;;;5052970;28;20040;-77
2022/10/08 02:49:49;;;;;;;0.20;0.20;;;;;;;;;;5051429;28;20021;-76
2022/10/08 02:52:16;;;;;;;0.13;0.13;;;;;;;;;;5051684;28;20037;-76
2022/10/08 02:54:42;;;;;;;0.20;0.20;;;;;;;;;;5052795;28;20108;-78
2022/10/08 02:57:23;;;;;;;0.20;0.20;;;;;;;;;;5052793;28;20427;-77
2022/10/08 02:59:49;;;;;;;0.20;0.20;;;;;;;;;;5052765;28;20047;-76
2022/10/08 03:02:18;;;;;;;0.13;0.13;;;;;;;;;;5050613;28;20104;-75
2022/10/08 03:04:51;;;;;;;0.13;0.13;;;;;;;;;;5049075;28;20371;-77
2022/10/08 03:07:16;;;;;;;0.10;0.10;;;;;;;;;;5049047;28;20036;-76
2022/10/08 03:09:43;;;;;;;0.17;0.17;;;;;;;;;;5048953;28;20029;-76
2022/10/08 03:12:08;;;;;;;0.10;0.10;;;;;;;;;;5047632;28;20074;-73
2022/10/08 03:14:37;;;;;;;0.20;0.20;;;;;;;;;;5049055;28;20021;-74
2022/10/08 03:17:02;;;;;;;0.10;0.10;;;;;;;;;;5048511;28;20061;-75
2022/10/08 03:19:28;;;;;;;0.20;0.20;;;;;;;;;;5048947;28;20040;-76
2022/10/08 03:21:55;;;;;;;0.10;0.10;;;;;;;;;;5052322;28;20029;-75
2022/10/08 03:24:20;;;;;;;13.30;8.25;;;;;;;;;;5053089;28;20036;-75
2022/10/08 03:26:46;;;;;;;0.68;0.68;;;;;;;;;;5052700;28;20028;-75
2022/10/08 03:29:12;;;;;;;0.20;0.20;;;;;;;;;;5052070;28;20159;-74
2022/10/08 03:31:37;;;;;;;0.28;0.28;;;;;;;;;;5052362;28;20033;-75
2022/10/08 03:34:02;;;;;;;0.10;0.10;;;;;;;;;;5052352;28;20036;-76
2022/10/08 03:36:28;;;;;;;0.10;0.10;;;;;;;;;;5052246;28;20025;-75
2022/10/08 03:38:54;;;;;;;0.10;0.10;;;;;;;;;;5051049;28;20025;-76
2022/10/08 03:41:19;;;;;;;0.75;0.75;;;;;;;;;;5052330;28;20048;-75
2022/10/08 03:43:45;;;;;;;0.25;0.25;;;;;;;;;;5052242;28;20115;-73
2022/10/08 03:46:11;;;;;;;0.25;0.25;;;;;;;;;;5052386;28;20025;-72
2022/10/08 03:48:37;;;;;;;0.13;0.13;;;;;;;;;;5051956;28;20086;-76
2022/10/08 03:51:04;;;;;;;0.15;0.15;;;;;;;;;;5051782;28;20032;-79
2022/10/08 03:53:34;;;;;;;0.32;0.32;;;;;;;;;;5050652;28;20021;-78
2022/10/08 03:56:04;;;;;;;4.95;4.47;;;;;;;;;;5052406;28;20025;-79
2022/10/08 03:58:30;;;;;;;0.20;0.20;;;;;;;;;;5052154;28;20131;-77
2022/10/08 04:00:56;;;;;;;0.17;0.17;;;;;;;;;;5051754;28;20211;-77
2022/10/08 04:03:22;;;;;;;0.22;0.22;;;;;;;;;;5052371;28;20029;-76
2022/10/08 04:05:48;;;;;;;0.17;0.17;;;;;;;;;;5052283;28;20107;-77
2022/10/08 04:08:13;;;;;;;0.30;0.30;;;;;;;;;;5051957;28;20436;-77
2022/10/08 04:10:39;;;;;;;2.05;1.95;;;;;;;;;;5051588;28;20029;-77
2022/10/08 04:13:04;;;;;;;0.30;0.30;;;;;;;;;;5051379;28;20025;-77
2022/10/08 04:15:30;;;;;;;0.20;0.20;;;;;;;;;;5051617;28;20491;-76
2022/10/08 04:17:55;;;;;;;1.27;1.17;;;;;;;;;;5051448;28;20056;-77
2022/10/08 04:20:21;;;;;;;0.32;0.32;;;;;;;;;;5050344;28;20028;-77
2022/10/08 04:22:47;;;;;;;0.10;0.10;;;;;;;;;;5051643;28;20120;-77
2022/10/08 04:25:13;;;;;;;0.28;0.28;;;;;;;;;;5050288;28;20025;-78
2022/10/08 04:27:39;;;;;;;0.10;0.10;;;;;;;;;;5049921;28;20443;-75
2022/10/08 04:30:05;;;;;;;0.20;0.20;;;;;;;;;;5051111;28;20021;-75
2022/10/08 04:32:30;;;;;;;0.20;0.20;;;;;;;;;;5049866;28;20110;-75
2022/10/08 04:34:55;;;;;;;0.13;0.13;;;;;;;;;;5049710;28;20033;-75
2022/10/08 04:37:21;;;;;;;0.20;0.20;;;;;;;;;;5051498;28;20435;-75
2022/10/08 04:39:47;;;;;;;0.10;0.10;;;;;;;;;;5050904;28;20538;-75
2022/10/08 04:42:12;;;;;;;0.43;0.43;;;;;;;;;;5050921;28;20036;-76
2022/10/08 04:44:37;;;;;;;0.20;0.20;;;;;;;;;;5050616;28;20083;-71
2022/10/08 04:47:03;;;;;;;1.20;1.15;;;;;;;;;;5050426;28;20032;-75
2022/10/08 04:49:29;;;;;;;0.10;0.10;;;;;;;;;;5049443;28;20029;-75
2022/10/08 04:51:54;;;;;;;0.20;0.20;;;;;;;;;;5049296;28;20037;-76
2022/10/08 04:54:20;;;;;;;0.65;0.65;;;;;;;;;;5050795;28;20033;-70
2022/10/08 04:56:45;;;;;;;0.20;0.20;;;;;;;;;;5050343;28;20020;-77
2022/10/08 04:59:11;;;;;;;0.20;0.20;;;;;;;;;;5050637;28;20033;-76
2022/10/08 05:01:37;;;;;;;0.20;0.20;;;;;;;;;;5061231;28;20037;-77
2022/10/08 05:04:02;;;;;;;0.20;0.20;;;;;;;;;;5066567;28;20056;-76
2022/10/08 05:06:29;;;;;;;0.85;0.85;;;;;;;;;;5050679;28;20024;-76
2022/10/08 05:08:55;;;;;;;1.08;1.05;;;;;;;;;;5050253;28;20119;-76
2022/10/08 05:11:24;;;;;;;0.73;0.73;;;;;;;;;;5049539;28;20025;-74
2022/10/08 05:13:50;;;;;;;0.20;0.20;;;;;;;;;;5050144;28;20107;-76
2022/10/08 05:16:17;;;;;;;0.22;0.22;;;;;;;;;;5049397;28;20031;-71
2022/10/08 05:18:42;;;;;;;1.30;0.60;;;;;;;;;;5050055;28;20801;-73
2022/10/08 05:21:15;;;;;;;0.15;0.15;;;;;;;;;;5048989;28;20040;-76
2022/10/08 05:23:43;;;;;;;0.20;0.20;;;;;;;;;;5050448;28;20021;-76
2022/10/08 05:26:16;;;;;;;0.22;0.22;;;;;;;;;;5049876;28;20036;-80
2022/10/08 05:28:43;;;;;;;0.20;0.20;;;;;;;;;;5049555;28;20029;-74
2022/10/08 05:31:08;;;;;;;0.20;0.20;;;;;;;;;;5064983;28;20502;-74
2022/10/08 05:33:34;;;;;;;0.13;0.13;;;;;;;;;;5084277;28;20021;-74
2022/10/08 05:36:02;;;;;;;0.50;0.47;;;;;;;;;;5058559;28;20028;-76
2022/10/08 05:38:27;;;;;;;0.20;0.20;;;;;;;;;;5075348;28;20044;-76
2022/10/08 05:40:53;;;;;;;0.20;0.20;;;;;;;;;;5089888;28;20035;-75
2022/10/08 05:43:18;;;;;;;0.20;0.20;;;;;;;;;;5089437;28;20024;-72
2022/10/08 05:45:50;;;;;;;0.28;0.28;;;;;;;;;;5089950;28;20024;-75
2022/10/08 05:48:15;;;;;;;0.20;0.20;;;;;;;;;;5089669;28;20031;-74
2022/10/08 05:50:41;;;;;;;0.20;0.20;;;;;;;;;;5090148;28;20135;-74
2022/10/08 05:53:06;;;;;;;0.65;0.65;;;;;;;;;;5076821;28;20025;-75
2022/10/08 05:55:32;;;;;;;0.20;0.20;;;;;;;;;;5050301;28;20163;-75
2022/10/08 05:57:57;;;;;;;0.20;0.20;;;;;;;;;;5048218;28;20066;-74
2022/10/08 06:00:22;;;;;;;0.20;0.20;;;;;;;;;;5052726;28;20047;-74
2022/10/08 06:02:48;;;;;;;0.20;0.20;;;;;;;;;;5049552;28;20029;-75
2022/10/08 06:05:13;;;;;;;0.20;0.20;;;;;;;;;;5049649;28;20384;-75
2022/10/08 06:07:39;;;;;;;0.20;0.20;;;;;;;;;;5070322;28;20035;-74
2022/10/08 06:10:05;;;;;;;0.30;0.30;;;;;;;;;;5071833;28;20029;-70
2022/10/08 06:12:30;;;;;;;0.52;0.52;;;;;;;;;;5075457;28;20024;-75
2022/10/08 06:14:56;;;;;;;0.32;0.32;;;;;;;;;;5050037;28;20025;-76
2022/10/08 06:17:21;;;;;;;0.73;0.73;;;;;;;;;;5065924;28;20048;-75
2022/10/08 06:19:47;;;;;;;0.40;0.40;;;;;;;;;;5067360;28;20025;-72
2022/10/08 06:22:12;;;;;;;0.40;0.40;;;;;;;;;;5063755;28;20028;-75
2022/10/08 06:24:39;;;;;;;0.40;0.40;;;;;;;;;;5065355;28;20044;-73
2022/10/08 06:27:07;;;;;;;0.20;0.20;;;;;;;;;;5077341;28;20448;-74
2022/10/08 06:29:33;;;;;;;0.20;0.20;;;;;;;;;;5072443;28;20035;-75
2022/10/08 06:31:58;;;;;;;0.43;0.43;;;;;;;;;;5078131;28;20108;-73
2022/10/08 06:34:24;;;;;;;0.20;0.20;;;;;;;;;;5063545;28;20033;-75
2022/10/08 06:36:49;;;;;;;1.15;1.10;;;;;;;;;;5053644;28;20025;-75
2022/10/08 06:39:16;;;;;;;0.20;0.20;;;;;;;;;;5068337;28;20025;-75
2022/10/08 06:41:42;;;;;;;0.22;0.22;;;;;;;;;;5061144;28;20033;-77
2022/10/08 06:44:09;;;;;;;0.38;0.38;;;;;;;;;;5068194;28;20367;-73
2022/10/08 06:46:35;;;;;;;0.20;0.20;;;;;;;;;;5070279;28;20031;-71
2022/10/08 06:49:00;;;;;;;0.30;0.30;;;;;;;;;;5065677;28;20480;-76
2022/10/08 06:51:26;;;;;;;3.08;2.88;;;;;;;;;;5050077;28;20021;-74
2022/10/08 06:53:53;;;;;;;0.60;0.60;;;;;;;;;;5050017;28;20136;-73
2022/10/08 06:56:19;;;;;;;0.47;0.47;;;;;;;;;;5053412;28;20017;-73
2022/10/08 06:58:46;;;;;;;0.45;0.45;;;;;;;;;;5088573;28;20158;-73
2022/10/08 07:01:13;;;;;;;0.43;0.43;;;;;;;;;;5073145;28;20373;-73
2022/10/08 07:03:39;;;;;;;0.68;0.68;;;;;;;;;;5074791;28;20025;-73
2022/10/08 07:06:06;;;;;;;0.30;0.30;;;;;;;;;;5063883;28;20018;-74
2022/10/08 07:08:31;;;;;;;0.20;0.20;;;;;;;;;;5073433;28;20036;-75
2022/10/08 07:11:07;;;;;;;0.28;0.28;;;;;;;;;;5065169;28;20074;-73
2022/10/08 07:13:33;;;;;;;0.40;0.40;;;;;;;;;;5067763;28;20036;-74
2022/10/08 07:16:09;;;;;;;2.03;1.92;;;;;;;;;;5051843;28;20035;-74
2022/10/08 07:18:35;;;;;;;0.20;0.20;;;;;;;;;;5060716;28;20044;-74
2022/10/08 07:21:01;;;;;;;0.40;0.40;;;;;;;;;;5057014;28;20052;-75
2022/10/08 07:23:27;;;;;;;1.92;1.85;;;;;;;;;;5062624;28;20036;-73
2022/10/08 07:25:56;;;;;;;0.13;0.13;;;;;;;;;;5069254;28;20025;-74
2022/10/08 07:28:22;;;;;;;0.28;0.28;;;;;;;;;;5082762;28;20028;-74
2022/10/08 07:30:47;;;;;;;0.20;0.20;;;;;;;;;;5058989;28;20543;-73
2022/10/08 07:33:13;;;;;;;0.30;0.30;;;;;;;;;;5080996;28;20043;-73
2022/10/08 07:35:38;;;;;;;0.20;0.20;;;;;;;;;;5087207;28;20034;-74
2022/10/08 07:38:04;;;;;;;0.20;0.20;;;;;;;;;;5079252;28;20040;-73
2022/10/08 07:40:29;;;;;;;0.20;0.20;;;;;;;;;;5054293;28;20029;-74
2022/10/08 07:42:54;;;;;;;0.30;0.30;;;;;;;;;;5056917;28;20020;-73
2022/10/08 07:45:20;;;;;;;0.30;0.30;;;;;;;;;;5054691;28;20235;-73
2022/10/08 07:47:45;;;;;;;0.20;0.20;;;;;;;;;;5057682;28;20033;-74
2022/10/08 07:50:11;;;;;;;0.20;0.20;;;;;;;;;;5060934;28;20028;-74
2022/10/08 07:52:36;;;;;;;0.20;0.20;;;;;;;;;;5066563;28;20557;-75
2022/10/08 07:55:02;;;;;;;0.20;0.20;;;;;;;;;;5050067;28;20067;-76
2022/10/08 07:57:27;;;;;;;0.20;0.20;;;;;;;;;;5050403;28;20658;-73
2022/10/08 07:59:52;;;;;;;0.30;0.30;;;;;;;;;;5052023;28;20036;-73
2022/10/08 08:02:18;;;;;;;0.20;0.20;;;;;;;;;;5046576;28;20025;-73
2022/10/08 08:04:43;;;;;;;0.20;0.20;;;;;;;;;;5046227;28;20021;-74
2022/10/08 08:07:09;;;;;;;0.77;0.77;;;;;;;;;;5045653;28;20040;-74
2022/10/08 08:09:34;;;;;;;0.20;0.20;;;;;;;;;;5046569;28;20278;-74
2022/10/08 08:12:00;;;;;;;0.30;0.30;;;;;;;;;;5044786;28;20025;-74
2022/10/08 08:14:25;;;;;;;0.20;0.20;;;;;;;;;;5047195;28;20021;-73
2022/10/08 08:16:51;;;;;;;1.00;1.00;;;;;;;;;;5047326;28;20045;-75
2022/10/08 08:19:16;;;;;;;0.60;0.60;;;;;;;;;;5030141;28;20053;-75
2022/10/08 08:21:42;;;;;;;0.73;0.73;;;;;;;;;;5061981;28;20426;-74
2022/10/08 08:24:09;;;;;;;0.20;0.20;;;;;;;;;;5047534;28;20397;-75
2022/10/08 08:26:35;;;;;;;0.40;0.40;;;;;;;;;;5078549;28;20126;-74
2022/10/08 08:29:02;;;;;;;0.20;0.20;;;;;;;;;;5085715;28;20049;-74
2022/10/08 08:31:29;;;;;;;0.20;0.20;;;;;;;;;;5088862;28;20024;-74
2022/10/08 08:33:56;;;;;;;0.20;0.20;;;;;;;;;;5089497;28;20046;-74
2022/10/08 08:36:25;;;;;;;0.30;0.30;;;;;;;;;;5089035;28;20034;-75
2022/10/08 08:38:51;;;;;;;0.47;0.47;;;;;;;;;;5076544;28;20040;-74
2022/10/08 08:41:16;;;;;;;0.20;0.20;;;;;;;;;;5067993;28;20058;-74
2022/10/08 08:43:42;;;;;;;0.40;0.40;;;;;;;;;;5078551;28;20514;-74
2022/10/08 08:46:09;;;;;;;0.90;0.90;;;;;;;;;;5067636;28;20184;-74
2022/10/08 08:48:36;;;;;;;1.38;0.65;;;;;;;;;;5068221;28;20056;-74
2022/10/08 08:51:03;;;;;;;0.20;0.20;;;;;;;;;;5066953;28;20578;-74
2022/10/08 08:53:29;;;;;;;0.43;0.43;;;;;;;;;;5067658;28;20360;-74
2022/10/08 08:55:56;;;;;;;1.20;0.77;;;;;;;;;;5068468;28;20048;-74
2022/10/08 08:58:22;;;;;;;0.30;0.30;;;;;;;;;;5068448;28;20048;-74
2022/10/08 09:00:53;;;;;;;0.30;0.30;;;;;;;;;;5064878;28;20094;-74
2022/10/08 09:03:25;;;;;;;0.22;0.22;;;;;;;;;;5066682;28;20028;-74
2022/10/08 09:05:52;;;;;;;0.50;0.50;;;;;;;;;;5066485;28;20120;-74
2022/10/08 09:08:21;;;;;;;0.85;0.80;;;;;;;;;;5068865;28;20028;-74
2022/10/08 09:10:57;;;;;;;0.87;0.63;;;;;;;;;;5086501;28;20069;-74
2022/10/08 09:13:30;;;;;;;0.95;0.60;;;;;;;;;;5086328;28;20042;-74
2022/10/08 09:15:56;;;;;;;0.20;0.20;;;;;;;;;;5077862;28;20032;-75
2022/10/08 09:18:22;;;;;;;0.20;0.20;;;;;;;;;;5087467;28;20058;-74
2022/10/08 09:20:47;;;;;;;0.20;0.20;;;;;;;;;;5087642;28;20039;-74
2022/10/08 09:23:23;;;;;;;0.63;0.63;;;;;;;;;;5088524;28;20031;-74
2022/10/08 09:25:56;;;;;;;0.20;0.20;;;;;;;;;;5087950;28;20374;-74
2022/10/08 09:28:51;;;;;;;0.20;0.20;;;;;;;;;;5088460;28;20028;-74
2022/10/08 09:31:16;;;;;;;0.20;0.20;;;;;;;;;;5068432;28;20055;-74
2022/10/08 09:33:42;;;;;;;4.53;1.27;;;;;;;;;;5052936;28;20032;-78
2022/10/08 09:36:08;;;;;;;0.20;0.20;;;;;;;;;;5050821;28;20020;-75
2022/10/08 09:38:35;;;;;;;0.25;0.25;;;;;;;;;;5054674;28;20448;-75
2022/10/08 09:41:04;;;;;;;0.20;0.20;;;;;;;;;;5047176;28;20112;-75
2022/10/08 09:43:32;;;;;;;0.47;0.47;;;;;;;;;;5051250;28;20156;-76
2022/10/08 09:45:57;;;;;;;0.20;0.20;;;;;;;;;;5059495;28;20027;-75
2022/10/08 09:48:27;;;;;;;1.38;1.00;;;;;;;;;;5069952;28;20040;-74
2022/10/08 09:50:52;;;;;;;0.73;0.73;;;;;;;;;;5068248;28;20059;-75
2022/10/08 09:53:19;;;;;;;0.20;0.20;;;;;;;;;;5079467;28;20073;-75
2022/10/08 09:55:49;;;;;;;0.20;0.20;;;;;;;;;;5078871;28;20024;-75
2022/10/08 09:58:16;;;;;;;0.30;0.30;;;;;;;;;;5062096;28;20564;-74
2022/10/08 10:00:42;;;;;;;2.58;1.02;;;;;;;;;;5047155;28;20057;-74
2022/10/08 10:03:15;;;;;;;0.30;0.30;;;;;;;;;;5047550;28;20052;-75
2022/10/08 10:05:41;;;;;;;0.20;0.20;;;;;;;;;;5053047;28;20052;-75
2022/10/08 10:08:26;;;;;;;0.20;0.20;;;;;;;;;;5056847;28;20064;-74
2022/10/08 10:10:52;;;;;;;0.60;0.60;;;;;;;;;;5051159;28;20025;-76
2022/10/08 10:13:26;;;;;;;0.30;0.30;;;;;;;;;;5044924;28;20037;-74
2022/10/08 10:15:56;;;;;;;4.95;0.95;;;;;;;;;;5057570;28;20451;-76
2022/10/08 10:18:25;;;;;;;0.73;0.65;;;;;;;;;;5045920;28;20055;-75
2022/10/08 10:20:57;;;;;;;0.30;0.30;;;;;;;;;;5045999;28;20060;-77
2022/10/08 10:23:35;;;;;;;0.30;0.30;;;;;;;;;;5046939;28;20093;-77
2022/10/08 10:26:08;;;;;;;0.70;0.50;;;;;;;;;;5048794;28;20102;-76
2022/10/08 10:28:43;;;;;;;0.30;0.30;;;;;;;;;;5077385;28;20051;-74
2022/10/08 10:31:14;;;;;;;0.55;0.55;;;;;;;;;;5051908;28;20059;-74
2022/10/08 10:33:51;;;;;;;0.43;0.43;;;;;;;;;;5063982;28;20472;-75
2022/10/08 10:36:17;;;;;;;0.63;0.52;;;;;;;;;;5055427;28;20032;-74
2022/10/08 10:38:51;;;;;;;0.38;0.38;;;;;;;;;;5045730;28;20523;-77
2022/10/08 10:41:21;;;;;;;1.20;0.55;;;;;;;;;;5046070;28;20040;-75
2022/10/08 10:43:52;;;;;;;0.30;0.30;;;;;;;;;;5047234;28;20100;-75
2022/10/08 10:46:27;;;;;;;0.28;0.28;;;;;;;;;;5047168;28;20044;-73
2022/10/08 10:48:53;;;;;;;0.28;0.28;;;;;;;;;;5047052;28;20037;-75
2022/10/08 10:51:30;;;;;;;1.25;1.05;;;;;;;;;;5047268;28;20066;-72
2022/10/08 10:54:02;;;;;;;2.00;1.25;;;;;;;;;;5045984;28;20041;-75
2022/10/08 10:56:32;;;;;;;0.25;0.25;;;;;;;;;;5047043;28;20033;-72
2022/10/08 10:59:11;;;;;;;3.20;2.75;;;;;;;;;;5047094;28;20090;-71
2022/10/08 11:01:37;;;;;;;1.23;0.65;;;;;;;;;;5048766;28;20469;-71
2022/10/08 11:04:11;;;;;;;0.30;0.30;;;;;;;;;;5048864;28;20067;-72
2022/10/08 11:06:59;;;;;;;0.80;0.80;;;;;;;;;;5047367;28;20033;-70
2022/10/08 11:09:25;;;;;;;0.30;0.30;;;;;;;;;;5047134;28;20035;-78
2022/10/08 11:11:53;;;;;;;1.10;1.00;;;;;;;;;;5050080;28;20029;-75
2022/10/08 11:14:21;;;;;;;0.40;0.40;;;;;;;;;;5047180;28;20817;-75
2022/10/08 11:16:58;;;;;;;0.37;0.37;;;;;;;;;;5054797;28;20041;-74
2022/10/08 11:19:26;;;;;;;1.20;0.75;;;;;;;;;;5048944;28;20283;-74
2022/10/08 11:22:01;;;;;;;0.50;0.50;;;;;;;;;;5048421;28;20033;-76
2022/10/08 11:24:52;;;;;;;1.83;1.33;;;;;;;;;;5052737;28;20488;-74
2022/10/08 11:27:21;;;;;;;2.83;0.80;;;;;;;;;;5041050;28;20041;-75
2022/10/08 11:29:49;;;;;;;0.50;0.50;;;;;;;;;;5050692;28;20432;-73
2022/10/08 11:32:16;;;;;;;2.93;1.73;;;;;;;;;;5055433;28;20036;-74
2022/10/08 11:34:47;;;;;;;0.38;0.38;;;;;;;;;;5048005;28;20263;-72
2022/10/08 11:37:15;;;;;;;0.30;0.30;;;;;;;;;;5048676;28;20033;-75
2022/10/08 11:39:45;;;;;;;0.60;0.50;;;;;;;;;;5048160;28;20086;-75
2022/10/08 11:42:16;;;;;;;0.28;0.28;;;;;;;;;;5047605;28;20094;-75
2022/10/08 11:44:42;;;;;;;1.05;1.05;;;;;;;;;;5048916;28;20051;-75
2022/10/08 11:47:26;;;;;;;1.02;0.85;;;;;;;;;;5056724;28;20472;-76
2022/10/08 11:49:54;;;;;;;0.77;0.63;;;;;;;;;;5061144;28;20032;-75
2022/10/08 11:52:20;;;;;;;0.38;0.30;;;;;;;;;;5055959;28;20043;-74
2022/10/08 11:54:49;;;;;;;1.55;1.00;;;;;;;;;;5048250;28;20036;-74
2022/10/08 11:57:23;;;;;;;0.30;0.30;;;;;;;;;;5049339;28;20033;-75
2022/10/08 11:59:52;;;;;;;0.70;0.65;;;;;;;;;;5049580;28;20399;-76
2022/10/08 12:02:22;;;;;;;0.20;0.20;;;;;;;;;;5062800;28;20177;-75
2022/10/08 12:04:48;;;;;;;0.77;0.52;;;;;;;;;;5046246;28;20071;-75
2022/10/08 12:07:13;;;;;;;0.40;0.40;;;;;;;;;;5063398;28;20337;-76
2022/10/08 12:09:58;;;;;;;0.50;0.50;;;;;;;;;;5060087;28;20029;-75
2022/10/08 12:12:24;;;;;;;0.20;0.20;;;;;;;;;;5051079;28;20036;-74
2022/10/08 12:14:49;;;;;;;0.57;0.57;;;;;;;;;;5051354;28;20392;-76
2022/10/08 12:17:15;;;;;;;0.20;0.20;;;;;;;;;;5050905;28;20041;-76
2022/10/08 12:19:42;;;;;;;0.95;0.70;;;;;;;;;;5049656;28;20029;-76
2022/10/08 12:22:13;;;;;;;0.30;0.30;;;;;;;;;;5052476;28;20056;-76
2022/10/08 12:24:39;;;;;;;0.20;0.20;;;;;;;;;;5059233;28;20112;-74
2022/10/08 12:27:16;;;;;;;0.30;0.30;;;;;;;;;;5047470;28;20655;-76
2022/10/08 12:29:54;;;;;;;0.25;0.25;;;;;;;;;;5048168;28;20021;-74
2022/10/08 12:32:21;;;;;;;0.70;0.50;;;;;;;;;;5058089;28;20392;-74
2022/10/08 12:34:47;;;;;;;0.35;0.35;;;;;;;;;;5047600;28;20058;-75
2022/10/08 12:37:24;;;;;;;0.30;0.30;;;;;;;;;;5062135;28;20048;-75
2022/10/08 12:39:50;;;;;;;0.20;0.20;;;;;;;;;;5047381;28;20056;-75
2022/10/08 12:42:16;;;;;;;1.08;0.50;;;;;;;;;;5051332;28;20041;-75
2022/10/08 12:44:47;;;;;;;2.42;0.57;;;;;;;;;;5056133;28;20036;-74
2022/10/08 12:47:19;;;;;;;0.20;0.20;;;;;;;;;;5047294;28;20036;-74
2022/10/08 12:50:07;;;;;;;1.05;0.80;;;;;;;;;;5046791;28;20037;-75
2022/10/08 12:52:34;;;;;;;0.40;0.40;;;;;;;;;;5065294;28;20052;-76
2022/10/08 12:55:00;;;;;;;1.83;1.67;;;;;;;;;;5056384;28;20036;-76
2022/10/08 12:57:29;;;;;;;1.00;0.70;;;;;;;;;;5061982;28;20639;-76
2022/10/08 12:59:55;;;;;;;0.27;0.27;;;;;;;;;;5048738;28;20043;-75
2022/10/08 13:02:37;;;;;;;0.90;0.60;;;;;;;;;;5046702;28;20060;-75
2022/10/08 13:05:22;;;;;;;1.20;0.82;;;;;;;;;;5046997;28;20916;-76
2022/10/08 13:07:48;;;;;;;0.40;0.40;;;;;;;;;;5046841;28;20049;-75
2022/10/08 13:10:18;;;;;;;0.80;0.52;;;;;;;;;;5047548;28;20345;-76
2022/10/08 13:12:57;;;;;;;0.28;0.28;;;;;;;;;;5064842;28;20120;-75
2022/10/08 13:15:24;;;;;;;0.55;0.55;;;;;;;;;;5051633;28;20081;-76
2022/10/08 13:17:50;;;;;;;1.13;1.02;;;;;;;;;;5046463;28;20120;-78
2022/10/08 13:20:17;;;;;;;0.30;0.30;;;;;;;;;;5046420;28;20138;-75
2022/10/08 13:22:43;;;;;;;0.90;0.90;;;;;;;;;;5056869;28;20024;-77
2022/10/08 13:25:27;;;;;;;1.50;1.40;;;;;;;;;;5055233;28;20032;-76
2022/10/08 13:28:09;;;;;;;0.40;0.40;;;;;;;;;;5048256;28;20025;-76
2022/10/08 13:30:35;;;;;;;0.30;0.30;;;;;;;;;;5058790;28;20098;-75
2022/10/08 13:33:01;;;;;;;1.20;1.20;;;;;;;;;;5066039;28;20037;-74
2022/10/08 13:35:28;;;;;;;0.38;0.38;;;;;;;;;;5052098;28;20037;-75
2022/10/08 13:37:54;;;;;;;0.40;0.40;;;;;;;;;;5045809;28;20035;-76
2022/10/08 13:40:20;;;;;;;0.60;0.60;;;;;;;;;;5045902;28;20025;-75
2022/10/08 13:42:54;;;;;;;0.60;0.50;;;;;;;;;;5045953;28;20112;-75
2022/10/08 13:45:29;;;;;;;1.10;0.77;;;;;;;;;;5046570;28;20108;-75
2022/10/08 13:47:55;;;;;;;0.82;0.70;;;;;;;;;;5047139;28;20060;-76
2022/10/08 13:50:21;;;;;;;0.43;0.43;;;;;;;;;;5048356;28;20776;-77
2022/10/08 13:52:52;;;;;;;0.40;0.40;;;;;;;;;;5047854;28;20025;-79
2022/10/08 13:55:28;;;;;;;0.20;0.20;;;;;;;;;;5047762;28;20120;-73
2022/10/08 13:57:54;;;;;;;1.13;1.02;;;;;;;;;;5047508;28;20037;-73
2022/10/08 14:00:21;;;;;;;0.20;0.20;;;;;;;;;;5047123;28;20025;-75
2022/10/08 14:02:47;;;;;;;0.77;0.75;;;;;;;;;;5061940;28;20138;-75
2022/10/08 14:05:12;;;;;;;0.40;0.40;;;;;;;;;;5066826;28;20029;-75
2022/10/08 14:07:38;;;;;;;0.75;0.55;;;;;;;;;;5068407;28;20965;-77
2022/10/08 14:10:04;;;;;;;0.77;0.47;;;;;;;;;;5066943;28;20467;-74
2022/10/08 14:12:31;;;;;;;0.20;0.20;;;;;;;;;;5052093;28;20028;-75
2022/10/08 14:14:57;;;;;;;0.30;0.30;;;;;;;;;;5048521;28;20021;-73
2022/10/08 14:17:22;;;;;;;1.77;1.73;;;;;;;;;;5051790;28;20558;-71
2022/10/08 14:19:48;;;;;;;1.75;1.00;;;;;;;;;;5060724;28;20397;-75
2022/10/08 14:22:14;;;;;;;0.40;0.40;;;;;;;;;;5039165;28;20033;-74
2022/10/08 14:24:39;;;;;;;0.20;0.20;;;;;;;;;;5054110;28;20044;-74
2022/10/08 14:27:05;;;;;;;0.60;0.28;;;;;;;;;;5065774;28;20028;-75
2022/10/08 14:29:32;;;;;;;0.88;0.73;;;;;;;;;;5067495;28;20064;-72
2022/10/08 14:31:57;;;;;;;0.40;0.40;;;;;;;;;;5067653;28;20056;-72
2022/10/08 14:34:23;;;;;;;0.20;0.20;;;;;;;;;;5068530;28;20098;-76
2022/10/08 14:36:50;;;;;;;0.77;0.57;;;;;;;;;;5068983;28;20094;-75
2022/10/08 14:39:15;;;;;;;0.40;0.40;;;;;;;;;;5068766;28;20131;-74
2022/10/08 14:41:42;;;;;;;0.40;0.40;;;;;;;;;;5068759;28;20450;-74
2022/10/08 14:44:08;;;;;;;1.65;0.60;;;;;;;;;;5069043;28;20108;-75
2022/10/08 14:46:33;;;;;;;1.38;1.27;;;;;;;;;;5069820;28;20123;-76
2022/10/08 14:48:59;;;;;;;1.35;1.23;;;;;;;;;;5068783;28;20529;-73